Time;durP1;ratioP1;P1;durP2;ratioP2;P2;SDS_P1;SDS_P2;PMS_P1;PMS_P2;Temp;Humidity;BMP_temperature;BMP_pressure;BME280_temperature;BME280_humidity;BME280_pressure;Samples;Min_cycle;Max_cycle;Signal;HPM_P1;HPM_P2
2022/10/16 00:00:16;;;;;;;3.20;0.90;;;16.70;94.50;;;;;;4179221;28;20048;-66
2022/10/16 00:02:57;;;;;;;0.13;0.13;;;16.80;94.50;;;;;;4191391;28;20051;-66
2022/10/16 00:05:42;;;;;;;0.00;0.00;;;16.80;94.50;;;;;;4191713;28;20048;-65
2022/10/16 00:08:24;;;;;;;0.00;0.00;;;16.70;94.50;;;;;;4186164;28;20063;-66
2022/10/16 00:11:07;;;;;;;0.00;0.00;;;16.70;94.50;;;;;;4186456;28;20490;-63
2022/10/16 00:13:51;;;;;;;0.43;0.43;;;16.70;94.50;;;;;;4194195;28;20159;-63
2022/10/16 00:16:33;;;;;;;0.00;0.00;;;16.70;94.50;;;;;;4194695;28;20222;-63
2022/10/16 00:19:13;;;;;;;0.00;0.00;;;16.70;94.50;;;;;;4194362;28;20166;-62
2022/10/16 00:21:54;;;;;;;0.00;0.00;;;16.70;94.50;;;;;;4194319;28;20157;-63
2022/10/16 00:24:54;;;;;;;1.27;1.25;;;16.70;94.50;;;;;;4194938;28;20071;-63
2022/10/16 00:27:36;;;;;;;0.00;0.00;;;16.70;94.50;;;;;;4194277;28;20055;-63
2022/10/16 00:30:18;;;;;;;0.00;0.00;;;16.70;94.50;;;;;;4194172;28;20055;-63
2022/10/16 00:32:59;;;;;;;0.00;0.00;;;16.70;94.50;;;;;;4194009;28;20410;-63
2022/10/16 00:35:39;;;;;;;0.82;0.80;;;16.70;94.50;;;;;;4192039;28;20121;-64
2022/10/16 00:38:21;;;;;;;0.00;0.00;;;16.70;94.90;;;;;;4194143;28;20502;-63
2022/10/16 00:41:02;;;;;;;0.00;0.00;;;16.70;94.50;;;;;;4194258;28;20067;-62
2022/10/16 00:43:45;;;;;;;0.00;0.00;;;16.70;94.50;;;;;;4193924;28;20054;-62
2022/10/16 00:46:30;;;;;;;0.00;0.00;;;16.70;94.50;;;;;;4194075;28;20064;-63
2022/10/16 00:49:13;;;;;;;0.00;0.00;;;16.70;94.50;;;;;;4193810;28;20180;-62
2022/10/16 00:51:55;;;;;;;0.00;0.00;;;16.70;94.50;;;;;;4192432;28;20512;-62
2022/10/16 00:54:36;;;;;;;0.00;0.00;;;16.70;94.50;;;;;;4192610;28;20072;-63
2022/10/16 00:57:17;;;;;;;0.00;0.00;;;16.70;94.50;;;;;;4194447;28;20051;-63
2022/10/16 00:59:58;;;;;;;0.00;0.00;;;16.70;94.50;;;;;;4192977;28;20052;-62
2022/10/16 01:02:40;;;;;;;0.00;0.00;;;16.70;94.50;;;;;;4193988;28;20179;-63
2022/10/16 01:05:23;;;;;;;0.00;0.00;;;16.70;94.50;;;;;;4192588;28;20063;-65
2022/10/16 01:08:13;;;;;;;0.00;0.00;;;16.70;94.50;;;;;;4193434;28;20051;-65
2022/10/16 01:11:00;;;;;;;0.00;0.00;;;16.70;94.50;;;;;;4194007;28;20052;-66
2022/10/16 01:13:46;;;;;;;0.00;0.00;;;16.70;94.40;;;;;;4193905;28;20410;-66
2022/10/16 01:16:35;;;;;;;0.00;0.00;;;16.70;94.50;;;;;;4192634;28;20178;-66
2022/10/16 01:19:27;;;;;;;0.00;0.00;;;16.70;94.90;;;;;;4192651;28;20134;-66
2022/10/16 01:22:10;;;;;;;0.00;0.00;;;16.70;94.40;;;;;;4189586;28;20906;-65
2022/10/16 01:24:51;;;;;;;0.00;0.00;;;16.60;94.40;;;;;;4173616;28;20055;-65
2022/10/16 01:27:37;;;;;;;0.10;0.10;;;16.70;94.50;;;;;;4175890;28;20064;-66
2022/10/16 01:30:22;;;;;;;0.00;0.00;;;16.70;94.50;;;;;;4185186;28;20075;-65
2022/10/16 01:33:09;;;;;;;0.00;0.00;;;16.60;94.40;;;;;;4193561;28;20170;-65
2022/10/16 01:35:55;;;;;;;0.30;0.30;;;16.60;94.40;;;;;;4193457;28;20356;-66
2022/10/16 01:38:39;;;;;;;0.25;0.25;;;16.60;94.40;;;;;;4193391;28;20052;-67
2022/10/16 01:41:25;;;;;;;0.00;0.00;;;16.70;94.50;;;;;;4175728;28;20060;-65
2022/10/16 01:44:11;;;;;;;0.10;0.10;;;16.60;94.50;;;;;;4164847;28;20159;-65
2022/10/16 01:46:54;;;;;;;0.38;0.38;;;16.60;94.40;;;;;;4191897;28;20535;-65
2022/10/16 01:49:39;;;;;;;0.00;0.00;;;16.60;94.40;;;;;;4193592;28;20171;-65
2022/10/16 01:52:24;;;;;;;0.00;0.00;;;16.60;94.40;;;;;;4193384;28;20063;-65
2022/10/16 01:55:09;;;;;;;0.00;0.00;;;16.60;94.40;;;;;;4193577;28;20130;-64
2022/10/16 01:57:52;;;;;;;0.00;0.00;;;16.60;94.50;;;;;;4176501;28;20060;-64
2022/10/16 02:00:38;;;;;;;0.00;0.00;;;16.60;94.50;;;;;;4177057;28;20052;-64
2022/10/16 02:03:21;;;;;;;0.00;0.00;;;16.60;94.50;;;;;;4188383;28;20064;-64
2022/10/16 02:06:02;;;;;;;0.00;0.00;;;16.60;94.50;;;;;;4193177;28;20105;-64
2022/10/16 02:08:44;;;;;;;0.00;0.00;;;16.60;94.50;;;;;;4192282;28;20445;-65
2022/10/16 02:11:25;;;;;;;;;;;16.60;94.50;;;;;;4177276;28;20063;-65
2022/10/16 02:14:07;;;;;;;0.00;0.00;;;16.60;94.50;;;;;;4176498;28;19978;-65
2022/10/16 02:16:49;;;;;;;0.00;0.00;;;16.60;94.50;;;;;;4184830;28;20281;-66
2022/10/16 02:19:30;;;;;;;0.00;0.00;;;16.60;94.50;;;;;;4193102;28;20186;-65
2022/10/16 02:22:16;;;;;;;0.00;0.00;;;16.60;94.50;;;;;;4192600;28;20059;-65
2022/10/16 02:25:02;;;;;;;5.47;0.80;;;16.60;94.50;;;;;;4176460;28;20079;-65
2022/10/16 02:27:50;;;;;;;0.00;0.00;;;16.60;94.50;;;;;;4176102;28;20055;-65
2022/10/16 02:30:36;;;;;;;0.00;0.00;;;16.60;94.50;;;;;;4176398;28;20056;-64
2022/10/16 02:33:22;;;;;;;0.00;0.00;;;16.60;94.50;;;;;;4176277;28;20064;-62
2022/10/16 02:36:03;;;;;;;0.00;0.00;;;16.60;94.50;;;;;;4158366;28;20040;-62
2022/10/16 02:38:44;;;;;;;;;;;16.60;94.50;;;;;;4159869;28;20111;-62
2022/10/16 02:41:25;;;;;;;0.00;0.00;;;16.60;94.50;;;;;;4159489;28;19936;-65
2022/10/16 02:44:06;;;;;;;0.00;0.00;;;16.50;94.50;;;;;;4147105;28;20118;-65
2022/10/16 02:46:47;;;;;;;0.00;0.00;;;16.60;94.50;;;;;;4163355;28;20420;-63
2022/10/16 02:49:29;;;;;;;0.32;0.32;;;16.50;94.50;;;;;;4180421;28;20093;-64
2022/10/16 02:52:10;;;;;;;0.00;0.00;;;16.50;94.50;;;;;;4192357;28;20399;-63
2022/10/16 02:54:51;;;;;;;0.00;0.00;;;16.50;94.50;;;;;;4192508;28;20075;-63
2022/10/16 02:57:32;;;;;;;0.00;0.00;;;16.50;94.50;;;;;;4192274;28;20040;-63
2022/10/16 03:00:16;;;;;;;0.00;0.00;;;16.50;94.50;;;;;;4191132;28;20113;-62
2022/10/16 03:02:57;;;;;;;0.00;0.00;;;16.50;94.50;;;;;;4175992;28;20097;-63
2022/10/16 03:05:39;;;;;;;0.00;0.00;;;16.50;94.50;;;;;;4159337;28;20160;-63
2022/10/16 03:08:23;;;;;;;0.55;0.55;;;16.50;94.50;;;;;;4172763;28;20068;-63
2022/10/16 03:11:03;;;;;;;0.10;0.10;;;16.50;94.50;;;;;;4160776;28;20052;-62
2022/10/16 03:13:44;;;;;;;0.00;0.00;;;16.50;94.50;;;;;;4159949;28;20060;-62
2022/10/16 03:16:25;;;;;;;0.00;0.00;;;16.50;94.50;;;;;;4165249;28;20060;-63
2022/10/16 03:19:06;;;;;;;0.00;0.00;;;16.50;94.40;;;;;;4189926;28;20056;-63
2022/10/16 03:21:48;;;;;;;0.08;0.08;;;16.50;94.50;;;;;;4192108;28;20071;-63
2022/10/16 03:24:29;;;;;;;0.00;0.00;;;16.50;94.40;;;;;;4192265;28;20187;-63
2022/10/16 03:27:10;;;;;;;0.00;0.00;;;16.50;94.40;;;;;;4192104;28;20509;-63
2022/10/16 03:29:51;;;;;;;0.00;0.00;;;16.50;94.30;;;;;;4180006;28;20071;-63
2022/10/16 03:32:32;;;;;;;0.00;0.00;;;16.50;94.30;;;;;;4191950;28;20052;-63
2022/10/16 03:35:13;;;;;;;0.00;0.00;;;16.50;94.30;;;;;;4191600;28;20399;-63
2022/10/16 03:37:56;;;;;;;0.00;0.00;;;16.50;94.30;;;;;;4175430;28;20087;-63
2022/10/16 03:40:37;;;;;;;0.00;0.00;;;16.50;94.30;;;;;;4174964;28;20568;-64
2022/10/16 03:43:18;;;;;;;0.00;0.00;;;16.50;94.30;;;;;;4175353;28;20060;-64
2022/10/16 03:45:58;;;;;;;0.00;0.00;;;16.50;94.30;;;;;;4174835;28;20055;-64
2022/10/16 03:48:40;;;;;;;0.00;0.00;;;16.50;94.30;;;;;;4174839;28;20570;-64
2022/10/16 03:51:21;;;;;;;0.05;0.05;;;16.50;94.30;;;;;;4177016;28;20412;-63
2022/10/16 03:54:03;;;;;;;0.00;0.00;;;16.50;94.30;;;;;;4175357;28;20060;-63
2022/10/16 03:56:44;;;;;;;0.00;0.00;;;16.50;94.30;;;;;;4175102;28;20044;-64
2022/10/16 03:59:25;;;;;;;0.00;0.00;;;16.50;94.20;;;;;;4175543;28;20056;-63
2022/10/16 04:02:06;;;;;;;0.00;0.00;;;16.50;94.30;;;;;;4175033;28;20602;-63
2022/10/16 04:04:47;;;;;;;0.00;0.00;;;16.40;94.30;;;;;;4159784;28;20083;-63
2022/10/16 04:07:28;;;;;;;0.00;0.00;;;16.40;94.30;;;;;;4187160;28;20051;-63
2022/10/16 04:10:11;;;;;;;0.60;0.60;;;16.50;94.30;;;;;;4188771;28;20514;-64
2022/10/16 04:12:51;;;;;;;0.00;0.00;;;16.50;94.30;;;;;;4175168;28;20072;-63
2022/10/16 04:15:32;;;;;;;5.07;1.17;;;16.50;94.30;;;;;;4175081;28;20056;-63
2022/10/16 04:18:13;;;;;;;0.00;0.00;;;16.50;94.30;;;;;;4182440;28;20047;-63
2022/10/16 04:20:54;;;;;;;0.00;0.00;;;16.40;94.20;;;;;;4191580;28;20059;-63
2022/10/16 04:23:35;;;;;;;0.00;0.00;;;16.50;94.20;;;;;;4182073;28;20052;-63
2022/10/16 04:26:17;;;;;;;0.10;0.10;;;16.50;94.20;;;;;;4191530;28;20118;-63
2022/10/16 04:28:58;;;;;;;1.55;1.25;;;16.50;94.30;;;;;;4191654;28;20051;-63
2022/10/16 04:31:39;;;;;;;33.10;1.65;;;16.50;94.20;;;;;;4185037;28;20059;-63
2022/10/16 04:34:20;;;;;;;0.00;0.00;;;16.40;94.60;;;;;;4174448;28;20415;-62
2022/10/16 04:37:01;;;;;;;0.00;0.00;;;16.50;94.30;;;;;;4174865;28;20519;-63
2022/10/16 04:39:42;;;;;;;0.10;0.10;;;16.50;94.30;;;;;;4176202;28;20060;-63
2022/10/16 04:42:24;;;;;;;0.00;0.00;;;16.40;94.20;;;;;;4175019;28;20063;-63
2022/10/16 04:45:07;;;;;;;11.20;1.65;;;16.40;94.20;;;;;;4174568;28;20055;-63
2022/10/16 04:47:49;;;;;;;0.00;0.00;;;16.50;94.20;;;;;;4174526;28;20055;-63
2022/10/16 04:50:30;;;;;;;0.00;0.00;;;16.40;94.20;;;;;;4174857;28;20060;-63
2022/10/16 04:53:19;;;;;;;0.00;0.00;;;16.40;94.20;;;;;;4174857;28;20064;-63
2022/10/16 04:56:00;;;;;;;0.00;0.00;;;16.40;94.30;;;;;;4175800;28;20075;-64
2022/10/16 04:58:42;;;;;;;0.00;0.00;;;16.40;94.20;;;;;;4173715;28;20075;-64
2022/10/16 05:01:23;;;;;;;0.00;0.00;;;16.40;94.20;;;;;;4184127;28;20086;-64
2022/10/16 05:04:04;;;;;;;0.00;0.00;;;16.50;94.20;;;;;;4193687;28;20059;-63
2022/10/16 05:06:45;;;;;;;0.00;0.00;;;16.40;94.20;;;;;;4194113;28;20538;-64
2022/10/16 05:09:26;;;;;;;0.00;0.00;;;16.40;94.20;;;;;;4181635;28;20597;-63
2022/10/16 05:12:06;;;;;;;0.83;0.83;;;16.40;94.10;;;;;;4180074;28;20056;-63
2022/10/16 05:14:49;;;;;;;0.20;0.20;;;16.40;94.10;;;;;;4185532;28;20191;-63
2022/10/16 05:17:29;;;;;;;0.00;0.00;;;16.40;94.10;;;;;;4177217;28;20183;-63
2022/10/16 05:20:10;;;;;;;0.00;0.00;;;16.40;94.10;;;;;;4177177;28;20051;-62
2022/10/16 05:22:51;;;;;;;0.00;0.00;;;16.40;94.10;;;;;;4177109;28;20051;-63
2022/10/16 05:25:32;;;;;;;0.00;0.00;;;16.40;94.10;;;;;;4176959;28;20052;-63
2022/10/16 05:28:13;;;;;;;0.00;0.00;;;16.40;94.20;;;;;;4163503;28;20183;-63
2022/10/16 05:30:55;;;;;;;0.00;0.00;;;16.40;94.10;;;;;;4192929;28;20063;-64
2022/10/16 05:33:36;;;;;;;0.00;0.00;;;16.40;94.20;;;;;;4187882;28;20060;-62
2022/10/16 05:36:18;;;;;;;1.00;1.00;;;16.40;94.20;;;;;;4178710;28;20558;-64
2022/10/16 05:38:58;;;;;;;0.00;0.00;;;16.40;94.20;;;;;;4178421;28;20064;-64
2022/10/16 05:41:39;;;;;;;0.00;0.00;;;16.40;94.20;;;;;;4192003;28;20063;-64
2022/10/16 05:44:20;;;;;;;0.00;0.00;;;16.40;94.10;;;;;;4193093;28;20055;-63
2022/10/16 05:47:02;;;;;;;0.00;0.00;;;16.40;94.10;;;;;;4176685;28;20059;-63
2022/10/16 05:49:43;;;;;;;0.22;0.22;;;16.40;94.10;;;;;;4177092;28;20048;-63
2022/10/16 05:52:24;;;;;;;0.00;0.00;;;16.40;94.20;;;;;;4176952;28;20094;-63
2022/10/16 05:55:06;;;;;;;0.00;0.00;;;16.40;94.20;;;;;;4176722;28;20047;-64
2022/10/16 05:57:46;;;;;;;;;;;16.40;94.60;;;;;;4176824;28;20047;-63
2022/10/16 06:00:27;;;;;;;0.10;0.10;;;16.40;94.30;;;;;;4176540;28;19927;-64
2022/10/16 06:03:09;;;;;;;1.15;1.08;;;16.50;94.60;;;;;;4174848;28;20052;-71
2022/10/16 06:05:51;;;;;;;0.00;0.00;;;16.50;94.50;;;;;;4174665;28;20059;-71
2022/10/16 06:08:32;;;;;;;;;;;16.50;94.40;;;;;;4176686;28;20125;-72
2022/10/16 06:11:15;;;;;;;0.00;0.00;;;16.50;94.30;;;;;;4176012;28;19927;-71
2022/10/16 06:13:57;;;;;;;0.00;0.00;;;16.50;94.20;;;;;;4176214;28;20139;-70
2022/10/16 06:16:39;;;;;;;0.00;0.00;;;16.50;94.20;;;;;;4175726;28;20058;-70
2022/10/16 06:19:21;;;;;;;0.85;0.47;;;16.50;94.20;;;;;;4174540;28;20056;-69
2022/10/16 06:22:04;;;;;;;0.00;0.00;;;16.50;94.60;;;;;;4175619;28;20194;-70
2022/10/16 06:24:44;;;;;;;0.00;0.00;;;16.50;94.30;;;;;;4175607;28;20052;-70
2022/10/16 06:27:25;;;;;;;4.75;2.75;;;16.50;94.20;;;;;;4175922;28;20507;-70
2022/10/16 06:30:08;;;;;;;0.00;0.00;;;16.50;94.30;;;;;;4175890;28;20071;-72
2022/10/16 06:32:48;;;;;;;0.28;0.28;;;16.50;94.70;;;;;;4192109;28;20163;-71
2022/10/16 06:35:31;;;;;;;0.00;0.00;;;16.50;95.40;;;;;;4177986;28;20048;-70
2022/10/16 06:38:12;;;;;;;0.13;0.13;;;16.50;95.20;;;;;;4186692;28;20481;-68
2022/10/16 06:40:55;;;;;;;0.38;0.38;;;16.50;94.70;;;;;;4189028;28;20125;-68
2022/10/16 06:43:36;;;;;;;0.00;0.00;;;16.50;94.20;;;;;;4192247;28;20124;-68
2022/10/16 06:46:19;;;;;;;0.20;0.20;;;16.50;94.00;;;;;;4191134;28;20055;-62
2022/10/16 06:49:00;;;;;;;0.00;0.00;;;16.50;93.80;;;;;;4174398;28;20179;-67
2022/10/16 06:51:42;;;;;;;0.00;0.00;;;16.50;93.70;;;;;;4190025;28;20051;-66
2022/10/16 06:54:23;;;;;;;0.35;0.35;;;16.50;93.60;;;;;;4190944;28;20114;-66
2022/10/16 06:57:04;;;;;;;0.00;0.00;;;16.50;93.50;;;;;;4192194;28;20059;-66
2022/10/16 06:59:45;;;;;;;0.00;0.00;;;16.50;93.90;;;;;;4190908;28;20457;-73
2022/10/16 07:02:27;;;;;;;0.00;0.00;;;16.50;93.40;;;;;;4191799;28;20071;-73
2022/10/16 07:05:08;;;;;;;14.20;2.20;;;16.40;93.30;;;;;;4176771;28;20044;-69
2022/10/16 07:07:51;;;;;;;0.00;0.00;;;16.50;93.20;;;;;;4176608;28;20491;-69
2022/10/16 07:10:32;;;;;;;0.00;0.00;;;16.40;93.10;;;;;;4175352;28;20438;-66
2022/10/16 07:13:14;;;;;;;0.08;0.08;;;16.50;93.00;;;;;;4174303;28;20048;-65
2022/10/16 07:15:55;;;;;;;0.00;0.00;;;16.40;92.90;;;;;;4175295;28;20109;-65
2022/10/16 07:18:38;;;;;;;0.00;0.00;;;16.40;93.20;;;;;;4175597;28;20048;-66
2022/10/16 07:21:21;;;;;;;0.00;0.00;;;16.50;93.30;;;;;;4189845;28;20056;-66
2022/10/16 07:24:05;;;;;;;0.00;0.00;;;16.50;93.00;;;;;;4181749;28;20051;-65
2022/10/16 07:26:46;;;;;;;0.00;0.00;;;16.50;92.80;;;;;;4179237;28;20056;-67
2022/10/16 07:29:27;;;;;;;0.00;0.00;;;16.50;92.70;;;;;;4176233;28;20071;-67
2022/10/16 07:32:08;;;;;;;0.45;0.45;;;16.50;92.60;;;;;;4173829;28;20047;-66
2022/10/16 07:34:49;;;;;;;0.00;0.00;;;16.50;92.50;;;;;;4172550;28;20055;-66
2022/10/16 07:37:30;;;;;;;0.00;0.00;;;16.50;92.50;;;;;;4188073;28;20055;-66
2022/10/16 07:40:13;;;;;;;0.00;0.00;;;16.50;92.80;;;;;;4173266;28;20707;-65
2022/10/16 07:42:54;;;;;;;0.00;0.00;;;16.50;92.40;;;;;;4171567;28;20071;-66
2022/10/16 07:45:35;;;;;;;0.00;0.00;;;16.50;92.40;;;;;;4174060;28;20052;-64
2022/10/16 07:48:16;;;;;;;0.00;0.00;;;16.50;92.40;;;;;;4173862;28;20068;-65
2022/10/16 07:50:58;;;;;;;;;;;16.50;92.40;;;;;;4189565;28;20056;-65
2022/10/16 07:53:39;;;;;;;0.00;0.00;;;16.40;92.30;;;;;;4187714;28;20724;-65
2022/10/16 07:56:22;;;;;;;0.00;0.00;;;16.50;92.40;;;;;;4188518;28;20071;-65
2022/10/16 07:59:02;;;;;;;2.60;2.22;;;16.40;92.30;;;;;;4181484;28;20145;-68
2022/10/16 08:01:43;;;;;;;0.00;0.00;;;16.40;92.30;;;;;;4187264;28;20067;-68
2022/10/16 08:04:24;;;;;;;0.00;0.00;;;16.40;92.70;;;;;;4187710;28;20306;-66
2022/10/16 08:07:05;;;;;;;0.00;0.00;;;16.40;92.30;;;;;;4188779;28;20866;-66
2022/10/16 08:09:49;;;;;;;0.00;0.00;;;16.40;92.30;;;;;;4186816;28;20491;-68
2022/10/16 08:12:31;;;;;;;0.00;0.00;;;16.50;92.30;;;;;;4188522;28;20051;-67
2022/10/16 08:15:12;;;;;;;0.00;0.00;;;16.50;92.30;;;;;;4187197;28;20044;-66
2022/10/16 08:17:58;;;;;;;0.00;0.00;;;16.50;92.30;;;;;;4187862;28;20064;-66
2022/10/16 08:20:40;;;;;;;0.00;0.00;;;16.50;92.30;;;;;;4177683;28;20048;-68
2022/10/16 08:23:21;;;;;;;0.00;0.00;;;16.50;92.20;;;;;;4172465;28;20063;-66
2022/10/16 08:26:09;;;;;;;0.00;0.00;;;16.50;92.20;;;;;;4167496;28;20052;-66
2022/10/16 08:28:52;;;;;;;0.00;0.00;;;16.50;92.20;;;;;;4187976;28;20182;-66
2022/10/16 08:31:33;;;;;;;0.00;0.00;;;16.50;92.10;;;;;;4187061;28;20141;-66
2022/10/16 08:34:14;;;;;;;0.00;0.00;;;16.50;92.10;;;;;;4188564;28;20129;-69
2022/10/16 08:36:55;;;;;;;0.00;0.00;;;16.50;92.10;;;;;;4190459;28;20089;-65
2022/10/16 08:39:36;;;;;;;0.00;0.00;;;16.60;92.10;;;;;;4191217;28;20518;-66
2022/10/16 08:42:30;;;;;;;0.00;0.00;;;16.60;92.10;;;;;;4191878;28;20059;-67
2022/10/16 08:45:35;;;;;;;0.00;0.00;;;16.60;92.10;;;;;;4191044;28;20109;-69
2022/10/16 08:48:23;;;;;;;0.00;0.00;;;16.60;92.00;;;;;;4180568;28;20055;-68
2022/10/16 08:51:05;;;;;;;0.00;0.00;;;16.70;92.10;;;;;;4182509;28;20051;-70
2022/10/16 08:53:50;;;;;;;0.10;0.10;;;16.70;92.10;;;;;;4174377;28;20048;-69
2022/10/16 08:56:33;;;;;;;0.00;0.00;;;16.70;91.90;;;;;;4183921;28;20059;-72
2022/10/16 08:59:17;;;;;;;0.00;0.00;;;16.80;91.90;;;;;;4189649;28;20692;-72
2022/10/16 09:02:01;;;;;;;0.10;0.10;;;16.80;91.70;;;;;;4189830;28;20514;-71
2022/10/16 09:05:03;;;;;;;0.00;0.00;;;16.80;91.70;;;;;;4190231;28;20051;-67
2022/10/16 09:07:50;;;;;;;0.00;0.00;;;16.90;91.70;;;;;;4188944;28;20055;-67
2022/10/16 09:10:42;;;;;;;0.00;0.00;;;16.90;91.60;;;;;;4176657;28;20048;-67
2022/10/16 09:13:28;;;;;;;0.00;0.00;;;16.90;91.50;;;;;;4181710;28;20054;-68
2022/10/16 09:16:20;;;;;;;0.00;0.00;;;16.90;91.40;;;;;;4190602;28;20056;-67
2022/10/16 09:19:10;;;;;;;0.00;0.00;;;16.90;91.40;;;;;;4191056;28;20051;-67
2022/10/16 09:21:53;;;;;;;0.00;0.00;;;16.90;91.30;;;;;;4178241;28;20056;-66
2022/10/16 09:24:34;;;;;;;0.00;0.00;;;17.00;91.30;;;;;;4182425;28;20051;-66
2022/10/16 09:27:16;;;;;;;0.52;0.52;;;17.00;91.30;;;;;;4174889;28;20048;-65
2022/10/16 09:29:56;;;;;;;0.00;0.00;;;17.00;91.40;;;;;;4190577;28;20063;-67
2022/10/16 09:32:39;;;;;;;0.00;0.00;;;17.00;91.40;;;;;;4191209;28;20182;-66
2022/10/16 09:35:28;;;;;;;0.00;0.00;;;17.00;91.50;;;;;;4190372;28;20063;-66
2022/10/16 09:38:09;;;;;;;0.00;0.00;;;17.00;91.50;;;;;;4188591;28;20063;-67
2022/10/16 09:40:50;;;;;;;;;;;17.00;91.50;;;;;;4191380;28;20047;-66
2022/10/16 09:43:40;;;;;;;0.00;0.00;;;17.00;91.50;;;;;;4191375;28;20046;-67
2022/10/16 09:46:26;;;;;;;0.75;0.75;;;17.10;91.60;;;;;;4189833;28;20078;-67
2022/10/16 09:49:22;;;;;;;0.00;0.00;;;17.10;91.60;;;;;;4189382;28;20051;-67
2022/10/16 09:52:13;;;;;;;0.00;0.00;;;17.10;91.60;;;;;;4189628;28;20171;-67
2022/10/16 09:54:56;;;;;;;0.00;0.00;;;17.10;91.60;;;;;;4189127;28;20493;-68
2022/10/16 09:57:37;;;;;;;0.00;0.00;;;17.10;91.60;;;;;;4190119;28;20060;-67
2022/10/16 10:00:19;;;;;;;0.00;0.00;;;17.10;91.50;;;;;;4191103;28;20054;-67
2022/10/16 10:03:00;;;;;;;0.00;0.00;;;17.10;91.60;;;;;;4190877;28;20050;-68
2022/10/16 10:05:41;;;;;;;0.00;0.00;;;17.10;91.50;;;;;;4188688;28;20048;-67
2022/10/16 10:08:24;;;;;;;0.00;0.00;;;17.10;91.50;;;;;;4189548;28;20059;-66
2022/10/16 10:11:05;;;;;;;0.00;0.00;;;17.10;91.90;;;;;;4189523;28;20129;-67
2022/10/16 10:13:46;;;;;;;0.00;0.00;;;17.10;91.50;;;;;;4190319;28;20098;-66
2022/10/16 10:16:27;;;;;;;0.00;0.00;;;17.10;91.50;;;;;;4189362;28;20059;-67
2022/10/16 10:19:15;;;;;;;0.00;0.00;;;17.10;91.50;;;;;;4189112;28;20060;-66
2022/10/16 10:21:56;;;;;;;0.10;0.10;;;17.10;91.50;;;;;;4190296;28;20145;-66
2022/10/16 10:24:39;;;;;;;0.00;0.00;;;17.10;91.50;;;;;;4190116;28;20047;-66
2022/10/16 10:27:20;;;;;;;0.00;0.00;;;17.10;91.50;;;;;;4189880;28;20171;-67
2022/10/16 10:30:10;;;;;;;0.00;0.00;;;17.10;91.40;;;;;;4189800;28;20202;-67
2022/10/16 10:33:07;;;;;;;0.00;0.00;;;17.10;91.50;;;;;;4189884;28;20203;-67
2022/10/16 10:35:56;;;;;;;0.00;0.00;;;17.10;91.40;;;;;;4189518;28;20526;-67
2022/10/16 10:38:46;;;;;;;0.00;0.00;;;17.10;91.30;;;;;;4189165;28;20079;-66
2022/10/16 10:41:56;;;;;;;0.00;0.00;;;17.10;91.30;;;;;;4189746;28;20055;-67
2022/10/16 10:45:00;;;;;;;0.00;0.00;;;17.10;91.40;;;;;;4179535;28;20055;-67
2022/10/16 10:47:49;;;;;;;0.00;0.00;;;17.20;91.30;;;;;;4173231;28;20650;-66
2022/10/16 10:50:40;;;;;;;0.00;0.00;;;17.20;91.30;;;;;;4182020;28;20131;-65
2022/10/16 10:53:32;;;;;;;2.90;1.00;;;17.20;91.20;;;;;;4182096;28;20059;-65
2022/10/16 10:56:25;;;;;;;0.00;0.00;;;17.30;91.20;;;;;;4182479;28;20064;-65
2022/10/16 10:59:26;;;;;;;1.00;1.00;;;17.30;91.10;;;;;;4176374;28;20856;-65
2022/10/16 11:02:16;;;;;;;0.00;0.00;;;17.30;91.30;;;;;;4188799;28;20141;-65
2022/10/16 11:05:20;;;;;;;0.00;0.00;;;17.40;90.90;;;;;;4190139;28;20051;-67
2022/10/16 11:08:05;;;;;;;21.35;1.13;;;17.40;90.70;;;;;;4189829;28;20052;-64
2022/10/16 11:10:52;;;;;;;0.00;0.00;;;17.40;90.70;;;;;;4189997;28;20051;-64
2022/10/16 11:13:36;;;;;;;0.00;0.00;;;17.50;90.60;;;;;;4187897;28;20059;-66
2022/10/16 11:16:24;;;;;;;0.00;0.00;;;17.50;90.50;;;;;;4188862;28;20067;-66
2022/10/16 11:19:13;;;;;;;0.00;0.00;;;17.50;90.30;;;;;;4189569;28;20109;-65
2022/10/16 11:22:02;;;;;;;0.00;0.00;;;17.60;90.30;;;;;;4189518;28;20056;-65
2022/10/16 11:24:49;;;;;;;0.00;0.00;;;17.60;90.20;;;;;;4176393;28;20117;-70
2022/10/16 11:27:38;;;;;;;0.00;0.00;;;17.60;90.10;;;;;;4187536;28;20056;-67
2022/10/16 11:30:22;;;;;;;0.00;0.00;;;17.60;90.00;;;;;;4176053;28;20074;-66
2022/10/16 11:33:25;;;;;;;0.57;0.57;;;17.70;89.90;;;;;;4189471;28;20056;-65
2022/10/16 11:36:14;;;;;;;0.00;0.00;;;17.70;89.60;;;;;;4171515;28;20052;-66
2022/10/16 11:39:02;;;;;;;0.00;0.00;;;17.70;89.30;;;;;;4182230;28;20093;-66
2022/10/16 11:41:48;;;;;;;0.38;0.38;;;17.70;89.00;;;;;;4182654;28;20064;-66
2022/10/16 11:44:42;;;;;;;0.00;0.00;;;17.80;88.60;;;;;;4188735;28;20707;-66
2022/10/16 11:47:32;;;;;;;7.57;2.78;;;17.80;88.50;;;;;;4188348;28;20194;-65
2022/10/16 11:50:40;;;;;;;0.00;0.00;;;17.80;88.30;;;;;;4187037;28;20051;-65
2022/10/16 11:53:31;;;;;;;0.20;0.20;;;17.80;87.90;;;;;;4187357;28;20057;-65
2022/10/16 11:56:13;;;;;;;0.20;0.20;;;17.90;87.70;;;;;;4188961;28;20055;-67
2022/10/16 11:59:00;;;;;;;0.00;0.00;;;17.90;87.50;;;;;;4185939;28;20055;-65
2022/10/16 12:01:45;;;;;;;0.00;0.00;;;17.90;87.10;;;;;;4173605;28;20055;-66
2022/10/16 12:04:33;;;;;;;0.00;0.00;;;17.90;87.00;;;;;;4174171;28;20069;-65
2022/10/16 12:07:20;;;;;;;0.35;0.35;;;17.90;86.90;;;;;;4186477;28;20495;-66
2022/10/16 12:10:12;;;;;;;0.93;0.70;;;17.90;86.60;;;;;;4176014;28;20048;-66
2022/10/16 12:12:53;;;;;;;0.00;0.00;;;18.00;86.60;;;;;;4192596;28;20112;-67
2022/10/16 12:15:35;;;;;;;0.00;0.00;;;18.00;86.40;;;;;;4191989;28;20055;-64
2022/10/16 12:18:35;;;;;;;;;;;18.00;86.30;;;;;;4192840;28;20075;-65
2022/10/16 12:21:18;;;;;;;0.08;0.08;;;17.90;86.20;;;;;;4192818;28;19931;-67
2022/10/16 12:24:04;;;;;;;0.00;0.00;;;17.90;86.10;;;;;;4190932;28;20189;-66
2022/10/16 12:26:46;;;;;;;0.00;0.00;;;17.90;86.10;;;;;;4192152;28;20059;-66
2022/10/16 12:29:34;;;;;;;0.00;0.00;;;17.90;86.10;;;;;;4192542;28;20101;-66
2022/10/16 12:32:29;;;;;;;0.00;0.00;;;17.90;86.20;;;;;;4191863;28;20098;-71
2022/10/16 12:35:30;;;;;;;0.00;0.00;;;17.90;87.30;;;;;;4191092;28;20495;-69
2022/10/16 12:38:18;;;;;;;0.00;0.00;;;17.90;87.30;;;;;;4190307;28;20396;-71
2022/10/16 12:41:04;;;;;;;0.00;0.00;;;17.90;86.80;;;;;;4191833;28;21070;-72
2022/10/16 12:43:46;;;;;;;0.00;0.00;;;17.90;86.40;;;;;;4191824;28;20054;-73
2022/10/16 12:46:40;;;;;;;0.00;0.00;;;17.90;85.80;;;;;;4190755;28;20097;-72
2022/10/16 12:49:32;;;;;;;0.10;0.10;;;17.90;86.30;;;;;;4190550;28;20114;-72
2022/10/16 12:52:29;;;;;;;0.00;0.00;;;17.90;85.00;;;;;;4191755;28;20051;-72
2022/10/16 12:55:19;;;;;;;0.00;0.00;;;18.00;85.00;;;;;;4191019;28;20051;-73
2022/10/16 12:58:24;;;;;;;0.00;0.00;;;18.00;84.70;;;;;;4191436;28;20071;-72
2022/10/16 13:01:17;;;;;;;0.00;0.00;;;18.00;84.50;;;;;;4189837;28;20055;-72
2022/10/16 13:04:19;;;;;;;0.00;0.00;;;18.00;84.00;;;;;;4190485;28;20198;-75
2022/10/16 13:07:10;;;;;;;0.00;0.00;;;18.10;83.70;;;;;;4175428;28;20044;-69
2022/10/16 13:10:03;;;;;;;0.67;0.67;;;18.10;83.40;;;;;;4191339;28;20415;-74
2022/10/16 13:13:01;;;;;;;0.47;0.47;;;18.10;83.10;;;;;;4176773;28;20623;-70
2022/10/16 13:15:58;;;;;;;0.00;0.00;;;18.10;82.90;;;;;;4191326;28;20383;-69
2022/10/16 13:18:47;;;;;;;0.00;0.00;;;18.10;82.70;;;;;;4178421;28;20110;-72
2022/10/16 13:21:39;;;;;;;0.00;0.00;;;18.10;82.40;;;;;;4193335;28;20115;-72
2022/10/16 13:24:31;;;;;;;0.00;0.00;;;18.00;82.40;;;;;;4193492;28;20059;-72
2022/10/16 13:27:22;;;;;;;0.00;0.00;;;18.00;82.30;;;;;;4192921;28;20047;-71
2022/10/16 13:30:13;;;;;;;0.00;0.00;;;18.00;82.60;;;;;;4193446;28;20052;-73
2022/10/16 13:33:01;;;;;;;1.15;1.05;;;18.00;82.40;;;;;;4176748;28;20076;-69
2022/10/16 13:35:50;;;;;;;0.00;0.00;;;18.00;82.40;;;;;;4175755;28;20040;-70
2022/10/16 13:38:33;;;;;;;0.00;0.00;;;18.00;82.40;;;;;;4175839;28;20052;-71
2022/10/16 13:41:16;;;;;;;0.00;0.00;;;18.00;82.70;;;;;;4185037;28;20054;-69
2022/10/16 13:43:58;;;;;;;0.00;0.00;;;18.00;82.70;;;;;;4191259;28;20555;-70
2022/10/16 13:46:39;;;;;;;0.00;0.00;;;18.00;82.60;;;;;;4190845;28;20122;-70
2022/10/16 13:49:21;;;;;;;0.00;0.00;;;18.00;82.50;;;;;;4192315;28;20515;-69
2022/10/16 13:52:02;;;;;;;0.20;0.20;;;18.00;82.60;;;;;;4192830;28;20048;-69
2022/10/16 13:54:43;;;;;;;0.00;0.00;;;18.00;82.80;;;;;;4192366;28;20059;-69
2022/10/16 13:57:25;;;;;;;0.00;0.00;;;18.00;82.80;;;;;;4191914;28;20406;-69
2022/10/16 14:00:19;;;;;;;0.00;0.00;;;18.00;82.80;;;;;;4190495;28;20601;-72
2022/10/16 14:03:04;;;;;;;0.00;0.00;;;18.00;82.90;;;;;;4191967;28;20101;-71
2022/10/16 14:05:50;;;;;;;0.00;0.00;;;18.00;83.00;;;;;;4191072;28;20047;-75
2022/10/16 14:08:32;;;;;;;1.15;1.15;;;18.10;83.00;;;;;;4190529;28;20505;-74
2022/10/16 14:11:13;;;;;;;0.00;0.00;;;18.10;83.00;;;;;;4191116;28;20048;-69
2022/10/16 14:13:55;;;;;;;;;;;18.10;83.00;;;;;;4192765;28;20038;-71
2022/10/16 14:16:36;;;;;;;0.00;0.00;;;18.10;83.10;;;;;;4173413;28;19947;-71